createdAt,value
2018-06-01T00:01:18.195Z,25.58
2018-06-01T00:03:45.570Z,24.27
2018-06-01T00:06:13.126Z,23.64
2018-06-01T00:08:40.518Z,23.43
2018-06-01T00:11:07.912Z,22.62
2018-06-01T00:13:35.305Z,22.03
2018-06-01T00:16:02.694Z,21.89
2018-06-01T00:18:30.257Z,21.64
2018-06-01T00:20:57.667Z,21.06
2018-06-01T00:23:25.352Z,21.08
2018-06-01T00:25:52.739Z,21.76
2018-06-01T00:28:20.729Z,20.91
2018-06-01T00:30:48.229Z,20.56
2018-06-01T00:33:15.644Z,20.53
2018-06-01T00:35:43.036Z,20.72
2018-06-01T00:38:10.426Z,20.15
2018-06-01T00:40:37.820Z,19.99
2018-06-01T00:43:05.199Z,20.13
2018-06-01T00:45:32.609Z,19.93
2018-06-01T00:47:59.994Z,20.20
2018-06-01T00:50:27.395Z,19.69
2018-06-01T00:52:54.791Z,19.81
2018-06-01T00:55:26.174Z,19.65
2018-06-01T00:57:53.554Z,19.63
2018-06-01T01:00:20.996Z,19.88
2018-06-01T01:02:48.392Z,19.92
2018-06-01T01:05:15.768Z,19.42
2018-06-01T01:07:43.162Z,19.50
2018-06-01T01:10:10.553Z,19.75
2018-06-01T01:12:37.945Z,19.87
2018-06-01T01:15:05.322Z,20.36
2018-06-01T01:17:32.756Z,19.91
2018-06-01T01:20:00.152Z,19.65
2018-06-01T01:22:27.555Z,19.58
2018-06-01T01:24:54.972Z,19.02
2018-06-01T01:27:22.369Z,18.78
2018-06-01T01:29:49.749Z,18.74
2018-06-01T01:32:17.148Z,18.56
2018-06-01T01:34:45.493Z,18.47
2018-06-01T01:37:12.895Z,18.81
2018-06-01T01:39:40.297Z,18.33
2018-06-01T01:42:07.679Z,18.21
2018-06-01T01:44:35.067Z,18.51
2018-06-01T01:47:02.456Z,18.25
2018-06-01T01:49:30.034Z,17.86
2018-06-01T01:51:57.470Z,17.94
2018-06-01T01:54:24.833Z,18.02
2018-06-01T01:56:52.223Z,18.34
2018-06-01T01:59:19.607Z,18.64
2018-06-01T02:01:47.001Z,19.02
2018-06-01T02:04:14.387Z,18.91
2018-06-01T02:06:41.786Z,18.67
2018-06-01T02:09:09.172Z,18.58
2018-06-01T02:11:36.571Z,18.76
2018-06-01T02:14:03.958Z,18.74
2018-06-01T02:16:31.352Z,19.12
2018-06-01T02:18:58.740Z,19.02
2018-06-01T02:21:26.145Z,19.03
2018-06-01T02:23:53.520Z,18.98
2018-06-01T02:26:20.910Z,18.93
2018-06-01T02:28:48.346Z,19.08
2018-06-01T02:31:16.696Z,18.98
2018-06-01T02:33:44.116Z,18.89
2018-06-01T02:36:11.508Z,19.23
2018-06-01T02:38:38.921Z,19.81
2018-06-01T02:41:06.305Z,19.29
2018-06-01T02:43:33.713Z,19.56
2018-06-01T02:46:01.084Z,19.45
2018-06-01T02:48:28.470Z,19.31
2018-06-01T02:50:55.864Z,19.16
2018-06-01T02:53:23.274Z,19.82
2018-06-01T02:55:50.664Z,19.66
2018-06-01T02:58:18.053Z,19.81
2018-06-01T03:00:45.816Z,19.55
2018-06-01T03:03:13.221Z,19.51
2018-06-01T03:05:40.609Z,19.34
2018-06-01T03:08:08.043Z,19.21
2018-06-01T03:10:35.431Z,19.21
2018-06-01T03:13:02.832Z,19.27
2018-06-01T03:15:30.239Z,19.35
2018-06-01T03:17:57.659Z,19.29
2018-06-01T03:20:25.060Z,19.19
2018-06-01T03:22:52.653Z,19.38
2018-06-01T03:25:20.060Z,18.94
2018-06-01T03:27:47.461Z,19.21
2018-06-01T03:30:14.863Z,19.02
2018-06-01T03:32:42.269Z,18.90
2018-06-01T03:35:09.655Z,19.07
2018-06-01T03:37:37.064Z,19.11
2018-06-01T03:40:04.439Z,18.91
2018-06-01T03:42:31.843Z,19.01
2018-06-01T03:44:59.227Z,18.80
2018-06-01T03:47:26.733Z,18.90
2018-06-01T03:49:54.110Z,19.01
2018-06-01T03:52:21.539Z,18.94
2018-06-01T03:54:48.919Z,19.18
2018-06-01T03:57:16.312Z,19.31
2018-06-01T03:59:43.691Z,18.81
2018-06-01T04:02:11.145Z,19.08
2018-06-01T04:04:38.493Z,19.22
2018-06-01T04:07:06.022Z,18.98
2018-06-01T04:09:33.419Z,19.26
2018-06-01T04:12:00.807Z,19.12
2018-06-01T04:14:28.195Z,19.30
2018-06-01T04:16:55.608Z,19.20
2018-06-01T04:19:22.977Z,19.31
2018-06-01T04:21:50.368Z,19.22
2018-06-01T04:24:17.769Z,19.14
2018-06-01T04:26:45.153Z,19.09
2018-06-01T04:29:12.545Z,19.43
2018-06-01T04:31:39.927Z,19.36
2018-06-01T04:34:07.323Z,19.18
2018-06-01T04:36:34.707Z,19.36
2018-06-01T04:39:02.204Z,19.00
2018-06-01T04:41:29.679Z,18.97
2018-06-01T04:43:57.071Z,19.07
2018-06-01T04:46:24.459Z,19.18
2018-06-01T04:48:51.854Z,19.16
2018-06-01T04:51:19.233Z,19.27
2018-06-01T04:53:46.630Z,19.17
2018-06-01T04:56:14.036Z,19.27
2018-06-01T04:58:41.409Z,19.37
2018-06-01T05:01:08.801Z,19.38
2018-06-01T05:03:36.183Z,19.24
2018-06-01T05:06:03.589Z,19.38
2018-06-01T05:08:30.957Z,19.39
2018-06-01T05:10:58.339Z,19.13
2018-06-01T05:13:25.729Z,19.36
2018-06-01T05:15:53.255Z,19.38
2018-06-01T05:18:20.641Z,19.29
2018-06-01T05:20:48.010Z,19.24
2018-06-01T05:23:16.430Z,19.59
2018-06-01T05:25:43.819Z,19.59
2018-06-01T05:28:11.206Z,19.46
2018-06-01T05:30:38.590Z,19.40
2018-06-01T05:33:06.003Z,19.37
2018-06-01T05:35:33.404Z,19.47
2018-06-01T05:38:00.759Z,19.18
2018-06-01T05:40:28.166Z,19.42
2018-06-01T05:42:55.544Z,19.56
2018-06-01T05:45:22.942Z,19.34
2018-06-01T05:47:50.485Z,19.48
2018-06-01T05:50:17.872Z,19.62
2018-06-01T05:52:45.253Z,19.33
2018-06-01T05:55:12.636Z,19.24
2018-06-01T05:57:40.020Z,19.41
2018-06-01T06:02:57.710Z,19.51
2018-06-01T06:05:25.091Z,19.49
2018-06-01T06:07:52.488Z,19.51
2018-06-01T06:10:19.873Z,19.76
2018-06-01T06:12:47.251Z,19.79
2018-06-01T06:15:14.718Z,20.22
2018-06-01T06:17:42.157Z,19.83
2018-06-01T06:20:09.492Z,20.15
2018-06-01T06:22:36.870Z,20.11
2018-06-01T06:25:04.256Z,19.99
2018-06-01T06:27:31.643Z,20.11
2018-06-01T06:29:59.023Z,20.07
2018-06-01T06:32:26.559Z,20.10
2018-06-01T06:34:53.948Z,20.31
2018-06-01T06:37:21.324Z,20.06
2018-06-01T06:39:48.902Z,20.46
2018-06-01T06:42:17.085Z,20.26
2018-06-01T06:44:44.484Z,20.17
2018-06-01T06:47:11.871Z,19.99
2018-06-01T06:49:40.170Z,20.01
2018-06-01T06:52:07.551Z,20.00
2018-06-01T06:54:34.951Z,20.07
2018-06-01T06:57:02.338Z,20.11
2018-06-01T06:59:29.725Z,20.15
2018-06-01T07:01:57.106Z,20.18
2018-06-01T07:04:24.496Z,20.18
2018-06-01T07:06:53.220Z,20.15
2018-06-01T07:09:20.611Z,20.07
2018-06-01T07:11:48.184Z,19.99
2018-06-01T07:14:15.567Z,20.03
2018-06-01T07:16:42.950Z,20.12
2018-06-01T07:19:10.341Z,19.96
2018-06-01T07:21:37.723Z,20.18
2018-06-01T07:24:05.115Z,19.97
2018-06-01T07:26:32.498Z,19.93
2018-06-01T07:28:59.884Z,19.93
2018-06-01T07:31:27.281Z,19.78
2018-06-01T07:33:54.842Z,20.02
2018-06-01T07:36:22.298Z,20.05
2018-06-01T07:38:49.692Z,20.12
2018-06-01T07:41:17.378Z,20.19
2018-06-01T07:43:44.779Z,20.01
2018-06-01T07:46:12.167Z,19.95
2018-06-01T07:48:39.544Z,20.05
2018-06-01T07:51:06.947Z,19.92
2018-06-01T07:53:34.315Z,19.99
2018-06-01T07:56:01.715Z,19.99
2018-06-01T07:58:29.091Z,20.24
2018-06-01T08:00:56.488Z,20.06
2018-06-01T08:03:23.881Z,20.35
2018-06-01T08:05:51.267Z,20.34
2018-06-01T08:08:18.657Z,20.34
2018-06-01T08:10:46.056Z,20.26
2018-06-01T08:13:13.468Z,20.48
2018-06-01T08:15:40.863Z,20.64
2018-06-01T08:18:08.243Z,20.38
2018-06-01T08:20:35.639Z,20.42
2018-06-01T08:23:03.024Z,20.66
2018-06-01T08:25:30.470Z,20.84
2018-06-01T08:27:57.844Z,20.75
2018-06-01T08:30:25.239Z,20.93
2018-06-01T08:32:52.624Z,20.95
2018-06-01T08:35:20.027Z,21.11
2018-06-01T08:37:47.458Z,21.22
2018-06-01T08:40:14.868Z,21.16
2018-06-01T08:42:42.255Z,21.14
2018-06-01T08:45:09.659Z,21.10
2018-06-01T08:47:37.029Z,20.91
2018-06-01T08:50:04.420Z,21.33
2018-06-01T08:52:31.819Z,21.29
2018-06-01T08:54:59.202Z,21.15
2018-06-01T08:57:26.587Z,21.56
2018-06-01T08:59:53.963Z,21.55
2018-06-01T09:02:21.372Z,21.74
2018-06-01T09:04:48.763Z,22.29
2018-06-01T09:07:16.153Z,22.51
2018-06-01T09:09:43.527Z,22.41
2018-06-01T09:12:10.931Z,22.28
2018-06-01T09:14:38.314Z,22.62
2018-06-01T09:17:05.706Z,22.65
2018-06-01T09:19:33.092Z,22.40
2018-06-01T09:22:00.484Z,22.46
2018-06-01T09:24:27.919Z,22.05
2018-06-01T09:26:55.324Z,21.76
2018-06-01T09:29:22.710Z,21.93
2018-06-01T09:31:50.097Z,22.40
2018-06-01T09:34:17.789Z,22.10
2018-06-01T09:36:45.164Z,21.97
2018-06-01T09:39:12.553Z,22.10
2018-06-01T09:41:39.926Z,22.20
2018-06-01T09:44:07.322Z,22.04
2018-06-01T09:46:34.707Z,22.12
2018-06-01T09:49:02.114Z,22.09
2018-06-01T09:51:29.464Z,22.29
2018-06-01T09:53:56.836Z,22.76
2018-06-01T09:56:24.227Z,22.74
2018-06-01T09:58:51.611Z,22.67
2018-06-01T10:01:24.572Z,22.56
2018-06-01T10:03:51.952Z,22.54
2018-06-01T10:06:19.350Z,22.27
2018-06-01T10:08:46.759Z,22.42
2018-06-01T10:11:14.152Z,22.72
2018-06-01T10:13:41.533Z,22.48
2018-06-01T10:16:08.932Z,22.67
2018-06-01T10:18:36.311Z,23.01
2018-06-01T10:21:03.788Z,23.13
2018-06-01T10:23:31.181Z,23.10
2018-06-01T10:25:58.580Z,23.05
2018-06-01T10:28:25.971Z,22.82
2018-06-01T10:30:53.676Z,22.92
2018-06-01T10:33:21.064Z,23.53
2018-06-01T10:35:48.456Z,23.58
2018-06-01T10:38:15.839Z,23.78
2018-06-01T10:40:43.220Z,23.95
2018-06-01T10:43:10.616Z,24.28
2018-06-01T10:45:38.007Z,24.45
2018-06-01T10:48:05.453Z,24.16
2018-06-01T10:50:32.791Z,24.40
2018-06-01T10:53:00.187Z,24.46
2018-06-01T10:55:27.666Z,24.38
2018-06-01T10:57:55.024Z,23.87
2018-06-01T11:00:22.420Z,23.49
2018-06-01T11:02:49.820Z,23.83
2018-06-01T11:05:17.218Z,23.72
2018-06-01T11:07:44.616Z,23.99
2018-06-01T11:10:12.006Z,24.26
2018-06-01T11:12:39.468Z,24.65
2018-06-01T11:15:06.870Z,24.87
2018-06-01T11:17:34.261Z,24.46
2018-06-01T11:20:01.649Z,24.64
2018-06-01T11:22:29.085Z,24.22
2018-06-01T11:24:56.487Z,24.16
2018-06-01T11:27:24.697Z,24.12
2018-06-01T11:29:52.084Z,23.89
2018-06-01T11:32:19.521Z,24.18
2018-06-01T11:34:46.847Z,24.02
2018-06-01T11:37:14.248Z,24.23
2018-06-01T11:39:41.643Z,24.03
2018-06-01T11:42:09.028Z,24.12
2018-06-01T11:44:36.411Z,24.29
2018-06-01T11:47:03.825Z,24.78
2018-06-01T11:49:31.201Z,25.26
2018-06-01T11:51:58.578Z,25.56
2018-06-01T11:54:25.971Z,25.59
2018-06-01T11:56:53.350Z,25.81
2018-06-01T11:59:20.883Z,25.36
2018-06-01T12:01:48.529Z,27.58
2018-06-01T12:04:15.921Z,28.12
2018-06-01T12:06:43.306Z,27.45
2018-06-01T12:09:10.691Z,27.46
2018-06-01T12:11:38.081Z,27.44
2018-06-01T12:14:05.475Z,28.47
2018-06-01T12:16:32.873Z,29.50
2018-06-01T12:19:00.268Z,29.73
2018-06-01T12:21:27.647Z,28.70
2018-06-01T12:23:55.042Z,28.89
2018-06-01T12:26:22.422Z,28.14
2018-06-01T12:28:49.818Z,27.14
2018-06-01T12:31:17.217Z,28.24
2018-06-01T12:33:44.615Z,28.71
2018-06-01T12:36:12.069Z,27.80
2018-06-01T12:38:39.455Z,29.11
2018-06-01T12:41:06.875Z,28.15
2018-06-01T12:43:34.268Z,27.13
2018-06-01T12:46:01.656Z,26.74
2018-06-01T12:48:29.050Z,25.99
2018-06-01T12:50:56.432Z,25.48
2018-06-01T12:53:23.824Z,25.45
2018-06-01T12:55:51.223Z,25.62
2018-06-01T12:58:18.788Z,25.45
2018-06-01T13:00:46.165Z,25.68
2018-06-01T13:03:13.555Z,25.61
2018-06-01T13:05:40.951Z,24.97
2018-06-01T13:08:08.357Z,24.96
2018-06-01T13:10:35.734Z,25.22
2018-06-01T13:13:03.145Z,25.43
2018-06-01T13:15:30.536Z,25.12
2018-06-01T13:17:57.954Z,25.93
2018-06-01T13:20:25.381Z,25.60
2018-06-01T13:22:52.715Z,25.56
2018-06-01T13:25:20.106Z,27.09
2018-06-01T13:27:47.495Z,28.80
2018-06-01T13:30:14.899Z,30.10
2018-06-01T13:32:42.279Z,30.88
2018-06-01T13:35:09.709Z,30.33
2018-06-01T13:37:37.091Z,30.66
2018-06-01T13:40:04.495Z,30.15
2018-06-01T13:42:31.934Z,32.07
2018-06-01T13:44:59.353Z,31.03
2018-06-01T13:47:26.731Z,29.20
2018-06-01T13:49:54.127Z,29.33
2018-06-01T13:52:21.525Z,30.17
2018-06-01T13:54:48.941Z,32.36
2018-06-01T13:57:16.344Z,31.73
2018-06-01T13:59:43.786Z,30.81
2018-06-01T14:02:11.161Z,30.05
2018-06-01T14:04:38.580Z,30.19
2018-06-01T14:07:06.050Z,30.81
2018-06-01T14:09:33.570Z,29.52
2018-06-01T14:12:00.959Z,28.57
2018-06-01T14:14:28.369Z,28.10
2018-06-01T14:16:55.799Z,29.03
2018-06-01T14:19:23.199Z,28.62
2018-06-01T14:21:50.633Z,29.56
2018-06-01T14:24:18.044Z,31.89
2018-06-01T14:26:45.444Z,31.40
2018-06-01T14:29:12.848Z,31.50
2018-06-01T14:31:40.249Z,30.50
2018-06-01T14:34:07.790Z,30.38
2018-06-01T14:36:35.229Z,29.57
2018-06-01T14:39:02.646Z,28.47
2018-06-01T14:41:30.051Z,29.80
2018-06-01T14:43:57.446Z,30.89
2018-06-01T14:46:24.887Z,29.86
2018-06-01T14:48:52.291Z,31.25
2018-06-01T14:51:19.676Z,30.09
2018-06-01T14:53:47.075Z,28.54
2018-06-01T14:56:14.551Z,27.91
2018-06-01T14:58:41.943Z,27.62
2018-06-01T15:01:09.334Z,29.02
2018-06-01T15:03:36.715Z,29.49
2018-06-01T15:06:04.123Z,27.82
2018-06-01T15:08:31.571Z,27.75
2018-06-01T15:10:58.904Z,27.67
2018-06-01T15:13:26.303Z,27.34
2018-06-01T15:15:53.888Z,25.80
2018-06-01T15:18:21.265Z,25.68
2018-06-01T15:20:53.417Z,25.31
2018-06-01T15:23:20.796Z,24.24
2018-06-01T15:25:48.248Z,22.94
2018-06-01T15:28:15.691Z,23.28
2018-06-01T15:30:43.086Z,23.73
2018-06-01T15:33:10.463Z,24.08
2018-06-01T15:35:37.865Z,24.33
2018-06-01T15:38:05.235Z,24.39
2018-06-01T15:40:32.631Z,25.62
2018-06-01T15:43:00.026Z,26.76
2018-06-01T15:45:27.424Z,26.86
2018-06-01T15:47:54.815Z,27.40
2018-06-01T15:50:22.213Z,28.10
2018-06-01T15:52:49.592Z,28.52
2018-06-01T15:55:16.979Z,27.74
2018-06-01T15:57:44.364Z,27.68
2018-06-01T16:00:11.773Z,27.24
2018-06-01T16:02:39.148Z,27.19
2018-06-01T16:05:06.547Z,26.46
2018-06-01T16:07:33.936Z,26.16
2018-06-01T16:10:01.343Z,26.09
2018-06-01T16:12:28.779Z,25.94
2018-06-01T16:14:56.111Z,25.62
2018-06-01T16:17:23.497Z,25.49
2018-06-01T16:19:50.895Z,25.38
2018-06-01T16:22:18.267Z,25.27
2018-06-01T16:24:45.687Z,24.82
2018-06-01T16:27:13.068Z,25.25
2018-06-01T16:29:40.847Z,25.17
2018-06-01T16:32:08.229Z,24.97
2018-06-01T16:34:35.632Z,25.10
2018-06-01T16:37:03.044Z,25.27
2018-06-01T16:39:30.432Z,25.15
2018-06-01T16:41:57.831Z,25.14
2018-06-01T16:44:25.283Z,25.18
2018-06-01T16:46:52.669Z,24.72
2018-06-01T16:49:21.827Z,24.53
2018-06-01T16:51:49.816Z,24.96
2018-06-01T16:54:17.244Z,24.86
2018-06-01T16:56:44.628Z,24.75
2018-06-01T16:59:12.020Z,25.17
2018-06-01T17:01:39.425Z,25.11
2018-06-01T17:04:06.828Z,24.86
2018-06-01T17:06:34.216Z,24.72
2018-06-01T17:09:01.619Z,24.70
2018-06-01T17:11:29.023Z,24.86
2018-06-01T17:13:56.508Z,24.83
2018-06-01T17:16:23.936Z,24.61
2018-06-01T17:18:51.337Z,24.59
2018-06-01T17:21:18.727Z,24.82
2018-06-01T17:23:46.121Z,24.48
2018-06-01T17:26:13.516Z,24.28
2018-06-01T17:28:40.905Z,24.19
2018-06-01T17:31:08.421Z,24.27
2018-06-01T17:33:35.809Z,24.30
2018-06-01T17:36:03.207Z,24.19
2018-06-01T17:38:30.603Z,24.02
2018-06-01T17:40:57.996Z,24.17
2018-06-01T17:43:25.487Z,23.90
2018-06-01T17:45:53.122Z,23.79
2018-06-01T17:48:20.500Z,23.83
2018-06-01T17:50:47.944Z,23.76
2018-06-01T17:53:15.336Z,23.51
2018-06-01T17:55:42.771Z,23.58
2018-06-01T17:58:10.262Z,23.56
2018-06-01T18:00:37.647Z,23.72
2018-06-01T18:03:05.040Z,23.62
2018-06-01T18:05:32.484Z,23.59
2018-06-01T18:07:59.888Z,23.91
2018-06-01T18:10:27.274Z,23.83
2018-06-01T18:12:54.693Z,23.51
2018-06-01T18:15:22.072Z,23.48
2018-06-01T18:17:54.396Z,23.36
2018-06-01T18:20:21.778Z,23.35
2018-06-01T18:22:50.247Z,23.51
2018-06-01T18:25:17.631Z,23.64
2018-06-01T18:27:45.085Z,23.48
2018-06-01T18:30:12.457Z,23.45
2018-06-01T18:32:39.862Z,23.50
2018-06-01T18:35:07.239Z,23.43
2018-06-01T18:37:34.627Z,23.60
2018-06-01T18:40:02.022Z,23.72
2018-06-01T18:42:29.391Z,23.52
2018-06-01T18:44:56.794Z,23.68
2018-06-01T18:47:24.176Z,23.61
2018-06-01T18:49:51.568Z,23.43
2018-06-01T18:52:18.959Z,23.19
2018-06-01T18:54:46.361Z,23.44
2018-06-01T18:57:13.739Z,23.51
2018-06-01T18:59:41.127Z,23.45
2018-06-01T19:02:08.543Z,23.60
2018-06-01T19:04:35.908Z,23.33
2018-06-01T19:07:03.291Z,23.04
2018-06-01T19:09:30.689Z,23.01
2018-06-01T19:11:58.064Z,23.07
2018-06-01T19:14:25.450Z,23.11
2018-06-01T19:16:52.834Z,22.91
2018-06-01T19:19:20.470Z,22.95
2018-06-01T19:21:47.881Z,23.00
2018-06-01T19:24:15.297Z,23.08
2018-06-01T19:26:42.668Z,23.08
2018-06-01T19:29:10.312Z,23.02
2018-06-01T19:31:37.699Z,23.17
2018-06-01T19:34:05.099Z,23.05
2018-06-01T19:36:32.498Z,22.63
2018-06-01T19:38:59.890Z,22.56
2018-06-01T19:41:27.283Z,22.79
2018-06-01T19:43:54.698Z,22.65
2018-06-01T19:46:22.141Z,22.50
2018-06-01T19:48:49.488Z,22.28
2018-06-01T19:51:16.881Z,22.33
2018-06-01T19:53:44.276Z,22.48
2018-06-01T19:56:11.664Z,22.53
2018-06-01T19:58:39.064Z,22.36
2018-06-01T20:01:06.454Z,22.24
2018-06-01T20:03:33.854Z,22.50
2018-06-01T20:06:01.247Z,22.46
2018-06-01T20:08:28.627Z,22.60
2018-06-01T20:10:56.012Z,22.46
2018-06-01T20:13:23.508Z,22.26
2018-06-01T20:15:50.787Z,22.34
2018-06-01T20:18:18.226Z,22.43
2018-06-01T20:20:45.664Z,22.13
2018-06-01T20:23:13.043Z,22.26
2018-06-01T20:25:40.431Z,22.18
2018-06-01T20:28:07.824Z,22.12
2018-06-01T20:30:35.214Z,22.13
2018-06-01T20:33:02.604Z,22.03
2018-06-01T20:35:30.000Z,22.11
2018-06-01T20:37:57.395Z,22.13
2018-06-01T20:40:24.790Z,22.00
2018-06-01T20:42:52.176Z,22.11
2018-06-01T20:45:19.579Z,22.14
2018-06-01T20:47:46.967Z,21.94
2018-06-01T20:50:14.361Z,22.12
2018-06-01T20:52:41.741Z,22.20
2018-06-01T20:55:09.137Z,22.34
2018-06-01T20:57:36.523Z,22.31
2018-06-01T21:00:03.919Z,22.29
2018-06-01T21:02:31.305Z,22.38
2018-06-01T21:04:58.698Z,22.05
2018-06-01T21:07:26.088Z,21.99
2018-06-01T21:09:53.482Z,21.91
2018-06-01T21:12:20.909Z,21.99
2018-06-01T21:14:48.323Z,21.67
2018-06-01T21:17:15.693Z,21.65
2018-06-01T21:19:43.090Z,21.74
2018-06-01T21:22:10.472Z,21.76
2018-06-01T21:24:37.863Z,21.97
2018-06-01T21:27:05.256Z,22.01
2018-06-01T21:29:32.661Z,21.92
2018-06-01T21:32:00.047Z,21.69
2018-06-01T21:34:27.441Z,21.78
2018-06-01T21:36:55.065Z,21.58
2018-06-01T21:39:22.456Z,21.69
2018-06-01T21:41:49.847Z,21.68
2018-06-01T21:44:17.232Z,21.71
2018-06-01T21:46:44.636Z,21.55
2018-06-01T21:49:12.032Z,21.46
2018-06-01T21:51:39.428Z,21.14
2018-06-01T21:54:06.814Z,21.24
2018-06-01T21:56:34.207Z,21.17
2018-06-01T21:59:01.590Z,21.28
2018-06-01T22:01:32.035Z,21.12
2018-06-01T22:03:59.448Z,21.23
2018-06-01T22:06:26.844Z,21.30
2018-06-01T22:08:54.244Z,21.16
2018-06-01T22:11:21.637Z,21.21
2018-06-01T22:13:49.064Z,21.26
2018-06-01T22:16:16.511Z,21.32
2018-06-01T22:18:43.849Z,21.40
2018-06-01T22:21:11.251Z,21.10
2018-06-01T22:23:38.623Z,21.07
2018-06-01T22:26:06.020Z,21.19
2018-06-01T22:28:33.410Z,21.02
2018-06-01T22:31:00.825Z,21.27
2018-06-01T22:33:28.208Z,21.49
2018-06-01T22:35:55.612Z,21.53
2018-06-01T22:38:23.004Z,21.61
2018-06-01T22:40:51.214Z,21.25
2018-06-01T22:43:18.599Z,21.34
2018-06-01T22:45:45.988Z,21.20
2018-06-01T22:48:13.379Z,21.19
2018-06-01T22:50:41.172Z,21.32
2018-06-01T22:53:08.570Z,21.20
2018-06-01T22:55:36.233Z,21.37
2018-06-01T22:58:04.572Z,21.42
2018-06-01T23:00:32.885Z,21.33
2018-06-01T23:03:00.285Z,21.20
2018-06-01T23:05:27.689Z,21.36
2018-06-01T23:07:55.088Z,21.19
2018-06-01T23:10:22.472Z,21.05
2018-06-01T23:12:49.868Z,21.18
2018-06-01T23:15:17.261Z,21.18
2018-06-01T23:17:44.652Z,20.93
2018-06-01T23:20:12.033Z,21.01
2018-06-01T23:22:39.431Z,21.05
2018-06-01T23:25:06.814Z,21.14
2018-06-01T23:27:34.203Z,20.99
2018-06-01T23:30:01.592Z,21.16
2018-06-01T23:32:29.124Z,21.19
2018-06-01T23:34:56.509Z,21.08
2018-06-01T23:37:23.916Z,21.09
2018-06-01T23:39:51.508Z,21.21
2018-06-01T23:42:18.920Z,21.24
2018-06-01T23:44:46.310Z,21.36
2018-06-01T23:47:13.745Z,21.31
2018-06-01T23:49:41.266Z,21.30
2018-06-01T23:52:08.652Z,21.30
2018-06-01T23:54:36.040Z,21.16
2018-06-01T23:57:03.433Z,20.99
2018-06-01T23:59:30.813Z,21.03
